sensor_id;sensor_type;location;lat;lon;timestamp;P1;durP1;ratioP1;P2;durP2;ratioP2
65665;SDS011;52365;47.464;18.976;2022-12-18T00:00:31;45.63;;;21.10;;
65665;SDS011;52365;47.464;18.976;2022-12-18T00:01:14;44.15;;;20.50;;
65665;SDS011;52365;47.464;18.976;2022-12-18T00:01:52;41.75;;;19.95;;
65665;SDS011;52365;47.464;18.976;2022-12-18T00:02:28;45.72;;;21.48;;
65665;SDS011;52365;47.464;18.976;2022-12-18T00:03:04;44.28;;;20.35;;
65665;SDS011;52365;47.464;18.976;2022-12-18T00:03:40;43.90;;;19.92;;
65665;SDS011;52365;47.464;18.976;2022-12-18T00:04:21;43.45;;;20.42;;
65665;SDS011;52365;47.464;18.976;2022-12-18T00:04:58;45.95;;;20.83;;
65665;SDS011;52365;47.464;18.976;2022-12-18T00:05:34;45.15;;;21.30;;
65665;SDS011;52365;47.464;18.976;2022-12-18T00:06:11;44.30;;;21.10;;
65665;SDS011;52365;47.464;18.976;2022-12-18T00:06:47;45.17;;;20.80;;
65665;SDS011;52365;47.464;18.976;2022-12-18T00:07:23;43.00;;;20.40;;
65665;SDS011;52365;47.464;18.976;2022-12-18T00:07:59;45.53;;;22.40;;
65665;SDS011;52365;47.464;18.976;2022-12-18T00:08:35;46.33;;;22.27;;
65665;SDS011;52365;47.464;18.976;2022-12-18T00:09:12;43.67;;;21.33;;
65665;SDS011;52365;47.464;18.976;2022-12-18T00:09:48;47.45;;;21.48;;
65665;SDS011;52365;47.464;18.976;2022-12-18T00:10:24;44.35;;;21.12;;
65665;SDS011;52365;47.464;18.976;2022-12-18T00:11:04;44.42;;;20.85;;
65665;SDS011;52365;47.464;18.976;2022-12-18T00:11:42;42.70;;;20.52;;
65665;SDS011;52365;47.464;18.976;2022-12-18T00:12:19;44.28;;;21.40;;
65665;SDS011;52365;47.464;18.976;2022-12-18T00:12:55;46.08;;;21.42;;
65665;SDS011;52365;47.464;18.976;2022-12-18T00:13:31;46.42;;;21.62;;
65665;SDS011;52365;47.464;18.976;2022-12-18T00:14:07;44.50;;;20.17;;
65665;SDS011;52365;47.464;18.976;2022-12-18T00:14:45;44.40;;;20.35;;
65665;SDS011;52365;47.464;18.976;2022-12-18T00:15:21;43.28;;;19.95;;
65665;SDS011;52365;47.464;18.976;2022-12-18T00:16:02;42.35;;;19.62;;
65665;SDS011;52365;47.464;18.976;2022-12-18T00:16:45;43.45;;;19.58;;
65665;SDS011;52365;47.464;18.976;2022-12-18T00:17:22;41.63;;;19.27;;
65665;SDS011;52365;47.464;18.976;2022-12-18T00:17:58;42.67;;;19.48;;
65665;SDS011;52365;47.464;18.976;2022-12-18T00:18:34;40.65;;;18.77;;
65665;SDS011;52365;47.464;18.976;2022-12-18T00:19:10;44.33;;;19.65;;
65665;SDS011;52365;47.464;18.976;2022-12-18T00:19:47;43.47;;;19.40;;
65665;SDS011;52365;47.464;18.976;2022-12-18T00:20:23;39.38;;;18.40;;
65665;SDS011;52365;47.464;18.976;2022-12-18T00:21:03;40.12;;;18.02;;
65665;SDS011;52365;47.464;18.976;2022-12-18T00:21:41;42.92;;;18.75;;
65665;SDS011;52365;47.464;18.976;2022-12-18T00:22:18;41.88;;;19.17;;
65665;SDS011;52365;47.464;18.976;2022-12-18T00:22:54;39.60;;;18.65;;
65665;SDS011;52365;47.464;18.976;2022-12-18T00:23:31;40.35;;;18.37;;
65665;SDS011;52365;47.464;18.976;2022-12-18T00:24:08;39.90;;;18.27;;
65665;SDS011;52365;47.464;18.976;2022-12-18T00:24:45;41.42;;;18.95;;
65665;SDS011;52365;47.464;18.976;2022-12-18T00:25:21;37.40;;;18.15;;
65665;SDS011;52365;47.464;18.976;2022-12-18T00:25:58;41.70;;;19.52;;
65665;SDS011;52365;47.464;18.976;2022-12-18T00:26:39;41.65;;;19.02;;
65665;SDS011;52365;47.464;18.976;2022-12-18T00:27:15;40.63;;;18.85;;
65665;SDS011;52365;47.464;18.976;2022-12-18T00:27:51;41.37;;;19.48;;
65665;SDS011;52365;47.464;18.976;2022-12-18T00:28:27;37.83;;;18.67;;
65665;SDS011;52365;47.464;18.976;2022-12-18T00:29:04;41.75;;;19.85;;
65665;SDS011;52365;47.464;18.976;2022-12-18T00:29:42;42.10;;;19.10;;
65665;SDS011;52365;47.464;18.976;2022-12-18T00:30:18;38.67;;;18.30;;
65665;SDS011;52365;47.464;18.976;2022-12-18T00:31:01;37.28;;;17.92;;
65665;SDS011;52365;47.464;18.976;2022-12-18T00:31:45;41.80;;;19.17;;
65665;SDS011;52365;47.464;18.976;2022-12-18T00:32:21;39.88;;;18.95;;
65665;SDS011;52365;47.464;18.976;2022-12-18T00:32:57;40.60;;;19.80;;
65665;SDS011;52365;47.464;18.976;2022-12-18T00:33:33;43.42;;;20.05;;
65665;SDS011;52365;47.464;18.976;2022-12-18T00:34:11;41.30;;;19.02;;
65665;SDS011;52365;47.464;18.976;2022-12-18T00:34:48;41.92;;;20.02;;
65665;SDS011;52365;47.464;18.976;2022-12-18T00:35:24;41.42;;;19.60;;
65665;SDS011;52365;47.464;18.976;2022-12-18T00:36:40;41.08;;;19.37;;
65665;SDS011;52365;47.464;18.976;2022-12-18T00:37:16;43.25;;;20.52;;
65665;SDS011;52365;47.464;18.976;2022-12-18T00:37:52;42.15;;;19.33;;
65665;SDS011;52365;47.464;18.976;2022-12-18T00:38:28;43.45;;;19.98;;
65665;SDS011;52365;47.464;18.976;2022-12-18T00:39:05;39.88;;;19.58;;
65665;SDS011;52365;47.464;18.976;2022-12-18T00:39:41;41.08;;;19.40;;
65665;SDS011;52365;47.464;18.976;2022-12-18T00:40:17;41.37;;;19.67;;
65665;SDS011;52365;47.464;18.976;2022-12-18T00:40:53;42.03;;;20.12;;
65665;SDS011;52365;47.464;18.976;2022-12-18T00:41:29;44.58;;;20.23;;
65665;SDS011;52365;47.464;18.976;2022-12-18T00:42:24;39.55;;;19.37;;
65665;SDS011;52365;47.464;18.976;2022-12-18T00:43:19;43.55;;;20.00;;
65665;SDS011;52365;47.464;18.976;2022-12-18T00:43:55;43.38;;;19.60;;
65665;SDS011;52365;47.464;18.976;2022-12-18T00:44:31;43.10;;;19.65;;
65665;SDS011;52365;47.464;18.976;2022-12-18T00:45:07;40.55;;;19.70;;
65665;SDS011;52365;47.464;18.976;2022-12-18T00:45:43;44.58;;;20.77;;
65665;SDS011;52365;47.464;18.976;2022-12-18T00:46:19;43.53;;;20.10;;
65665;SDS011;52365;47.464;18.976;2022-12-18T00:46:55;42.03;;;20.08;;
65665;SDS011;52365;47.464;18.976;2022-12-18T00:47:31;42.05;;;19.33;;
65665;SDS011;52365;47.464;18.976;2022-12-18T00:48:07;40.70;;;19.33;;
65665;SDS011;52365;47.464;18.976;2022-12-18T00:48:43;42.88;;;20.35;;
65665;SDS011;52365;47.464;18.976;2022-12-18T00:49:19;43.87;;;19.75;;
65665;SDS011;52365;47.464;18.976;2022-12-18T00:49:56;42.20;;;19.27;;
65665;SDS011;52365;47.464;18.976;2022-12-18T00:50:32;41.03;;;19.17;;
65665;SDS011;52365;47.464;18.976;2022-12-18T00:51:08;44.33;;;19.70;;
65665;SDS011;52365;47.464;18.976;2022-12-18T00:51:44;41.95;;;19.25;;
65665;SDS011;52365;47.464;18.976;2022-12-18T00:52:20;42.53;;;19.33;;
65665;SDS011;52365;47.464;18.976;2022-12-18T00:52:56;41.85;;;18.48;;
65665;SDS011;52365;47.464;18.976;2022-12-18T00:53:32;39.20;;;18.55;;
65665;SDS011;52365;47.464;18.976;2022-12-18T00:54:08;37.65;;;19.02;;
65665;SDS011;52365;47.464;18.976;2022-12-18T00:54:44;40.65;;;18.42;;
65665;SDS011;52365;47.464;18.976;2022-12-18T00:55:20;41.03;;;18.75;;
65665;SDS011;52365;47.464;18.976;2022-12-18T00:55:56;41.55;;;19.35;;
65665;SDS011;52365;47.464;18.976;2022-12-18T00:56:33;42.47;;;19.62;;
65665;SDS011;52365;47.464;18.976;2022-12-18T00:57:11;38.22;;;18.25;;
65665;SDS011;52365;47.464;18.976;2022-12-18T00:57:47;41.65;;;18.35;;
65665;SDS011;52365;47.464;18.976;2022-12-18T00:58:23;38.33;;;18.55;;
65665;SDS011;52365;47.464;18.976;2022-12-18T00:58:59;42.42;;;18.92;;
65665;SDS011;52365;47.464;18.976;2022-12-18T00:59:35;41.37;;;19.77;;
65665;SDS011;52365;47.464;18.976;2022-12-18T01:00:12;41.08;;;20.17;;
65665;SDS011;52365;47.464;18.976;2022-12-18T01:00:50;42.85;;;19.17;;
65665;SDS011;52365;47.464;18.976;2022-12-18T01:01:26;43.38;;;19.75;;
65665;SDS011;52365;47.464;18.976;2022-12-18T01:02:02;46.83;;;21.50;;
65665;SDS011;52365;47.464;18.976;2022-12-18T01:02:39;44.60;;;21.27;;
65665;SDS011;52365;47.464;18.976;2022-12-18T01:03:15;43.87;;;20.12;;
65665;SDS011;52365;47.464;18.976;2022-12-18T01:03:51;45.45;;;21.10;;
65665;SDS011;52365;47.464;18.976;2022-12-18T01:04:27;42.78;;;20.25;;
65665;SDS011;52365;47.464;18.976;2022-12-18T01:05:04;43.92;;;20.55;;
65665;SDS011;52365;47.464;18.976;2022-12-18T01:05:40;44.42;;;19.05;;
65665;SDS011;52365;47.464;18.976;2022-12-18T01:06:17;44.63;;;20.35;;
65665;SDS011;52365;47.464;18.976;2022-12-18T01:06:53;43.17;;;19.65;;
65665;SDS011;52365;47.464;18.976;2022-12-18T01:07:29;41.80;;;19.15;;
65665;SDS011;52365;47.464;18.976;2022-12-18T01:08:05;44.10;;;19.65;;
65665;SDS011;52365;47.464;18.976;2022-12-18T01:08:42;43.33;;;20.15;;
65665;SDS011;52365;47.464;18.976;2022-12-18T01:09:18;44.67;;;20.08;;
65665;SDS011;52365;47.464;18.976;2022-12-18T01:09:54;40.83;;;19.05;;
65665;SDS011;52365;47.464;18.976;2022-12-18T01:10:30;42.90;;;20.30;;
65665;SDS011;52365;47.464;18.976;2022-12-18T01:11:07;45.22;;;19.70;;
65665;SDS011;52365;47.464;18.976;2022-12-18T01:11:44;41.20;;;20.00;;
65665;SDS011;52365;47.464;18.976;2022-12-18T01:12:20;44.28;;;19.98;;
65665;SDS011;52365;47.464;18.976;2022-12-18T01:12:56;43.22;;;20.77;;
65665;SDS011;52365;47.464;18.976;2022-12-18T01:13:32;44.65;;;20.75;;
65665;SDS011;52365;47.464;18.976;2022-12-18T01:14:08;45.20;;;20.65;;
65665;SDS011;52365;47.464;18.976;2022-12-18T01:14:45;43.35;;;20.30;;
65665;SDS011;52365;47.464;18.976;2022-12-18T01:15:21;45.17;;;20.73;;
65665;SDS011;52365;47.464;18.976;2022-12-18T01:15:57;43.58;;;20.92;;
65665;SDS011;52365;47.464;18.976;2022-12-18T01:16:33;46.35;;;21.58;;
65665;SDS011;52365;47.464;18.976;2022-12-18T01:17:09;41.80;;;20.10;;
65665;SDS011;52365;47.464;18.976;2022-12-18T01:17:46;47.38;;;21.15;;
65665;SDS011;52365;47.464;18.976;2022-12-18T01:18:22;43.20;;;20.40;;
65665;SDS011;52365;47.464;18.976;2022-12-18T01:18:58;44.80;;;20.62;;
65665;SDS011;52365;47.464;18.976;2022-12-18T01:19:34;45.70;;;20.88;;
65665;SDS011;52365;47.464;18.976;2022-12-18T01:20:11;43.47;;;20.20;;
65665;SDS011;52365;47.464;18.976;2022-12-18T01:20:48;44.95;;;21.00;;
65665;SDS011;52365;47.464;18.976;2022-12-18T01:21:24;43.78;;;20.45;;
65665;SDS011;52365;47.464;18.976;2022-12-18T01:22:00;46.20;;;20.45;;
65665;SDS011;52365;47.464;18.976;2022-12-18T01:22:36;48.25;;;20.95;;
65665;SDS011;52365;47.464;18.976;2022-12-18T01:23:12;43.53;;;20.58;;
65665;SDS011;52365;47.464;18.976;2022-12-18T01:23:55;45.92;;;20.40;;
65665;SDS011;52365;47.464;18.976;2022-12-18T01:24:32;44.40;;;20.65;;
65665;SDS011;52365;47.464;18.976;2022-12-18T01:25:08;42.40;;;20.23;;
65665;SDS011;52365;47.464;18.976;2022-12-18T01:25:44;45.25;;;20.55;;
65665;SDS011;52365;47.464;18.976;2022-12-18T01:26:20;46.25;;;20.75;;
65665;SDS011;52365;47.464;18.976;2022-12-18T01:26:57;44.08;;;20.88;;
65665;SDS011;52365;47.464;18.976;2022-12-18T01:27:33;43.38;;;20.27;;
65665;SDS011;52365;47.464;18.976;2022-12-18T01:28:10;46.30;;;21.58;;
65665;SDS011;52365;47.464;18.976;2022-12-18T01:28:46;44.90;;;21.40;;
65665;SDS011;52365;47.464;18.976;2022-12-18T01:29:22;44.70;;;20.58;;
65665;SDS011;52365;47.464;18.976;2022-12-18T01:29:59;44.88;;;20.95;;
65665;SDS011;52365;47.464;18.976;2022-12-18T01:30:35;44.35;;;20.80;;
65665;SDS011;52365;47.464;18.976;2022-12-18T01:31:12;43.55;;;20.52;;
65665;SDS011;52365;47.464;18.976;2022-12-18T01:31:54;44.83;;;21.27;;
65665;SDS011;52365;47.464;18.976;2022-12-18T01:32:31;44.60;;;21.02;;
65665;SDS011;52365;47.464;18.976;2022-12-18T01:33:07;43.05;;;20.58;;
65665;SDS011;52365;47.464;18.976;2022-12-18T01:33:44;45.00;;;21.02;;
65665;SDS011;52365;47.464;18.976;2022-12-18T01:34:20;44.97;;;21.45;;
65665;SDS011;52365;47.464;18.976;2022-12-18T01:34:57;49.35;;;22.13;;
65665;SDS011;52365;47.464;18.976;2022-12-18T01:35:33;51.60;;;22.90;;
65665;SDS011;52365;47.464;18.976;2022-12-18T01:36:20;46.22;;;20.98;;
65665;SDS011;52365;47.464;18.976;2022-12-18T01:36:58;48.17;;;21.65;;
65665;SDS011;52365;47.464;18.976;2022-12-18T01:37:34;47.28;;;21.08;;
65665;SDS011;52365;47.464;18.976;2022-12-18T01:38:10;49.80;;;21.95;;
65665;SDS011;52365;47.464;18.976;2022-12-18T01:38:46;50.08;;;22.30;;
65665;SDS011;52365;47.464;18.976;2022-12-18T01:39:24;52.45;;;23.17;;
65665;SDS011;52365;47.464;18.976;2022-12-18T01:40:00;50.88;;;22.75;;
65665;SDS011;52365;47.464;18.976;2022-12-18T01:40:36;52.47;;;23.23;;
65665;SDS011;52365;47.464;18.976;2022-12-18T01:41:12;48.08;;;21.62;;
65665;SDS011;52365;47.464;18.976;2022-12-18T01:41:50;50.70;;;22.90;;
65665;SDS011;52365;47.464;18.976;2022-12-18T01:42:38;49.65;;;22.42;;
65665;SDS011;52365;47.464;18.976;2022-12-18T01:43:14;52.13;;;21.75;;
65665;SDS011;52365;47.464;18.976;2022-12-18T01:46:01;47.20;;;21.20;;
65665;SDS011;52365;47.464;18.976;2022-12-18T01:46:38;47.97;;;21.30;;
65665;SDS011;52365;47.464;18.976;2022-12-18T01:47:18;48.50;;;21.85;;
65665;SDS011;52365;47.464;18.976;2022-12-18T01:48:02;49.60;;;22.33;;
65665;SDS011;52365;47.464;18.976;2022-12-18T01:48:41;44.80;;;20.98;;
65665;SDS011;52365;47.464;18.976;2022-12-18T01:49:19;46.28;;;21.33;;
65665;SDS011;52365;47.464;18.976;2022-12-18T01:49:56;47.90;;;21.73;;
65665;SDS011;52365;47.464;18.976;2022-12-18T01:50:35;46.80;;;21.48;;
65665;SDS011;52365;47.464;18.976;2022-12-18T01:51:16;48.25;;;21.65;;
65665;SDS011;52365;47.464;18.976;2022-12-18T01:51:52;46.45;;;21.70;;
65665;SDS011;52365;47.464;18.976;2022-12-18T01:52:29;46.15;;;20.83;;
65665;SDS011;52365;47.464;18.976;2022-12-18T01:53:13;44.92;;;20.77;;
65665;SDS011;52365;47.464;18.976;2022-12-18T01:53:52;44.70;;;20.65;;
65665;SDS011;52365;47.464;18.976;2022-12-18T01:54:28;45.80;;;20.88;;
65665;SDS011;52365;47.464;18.976;2022-12-18T01:55:05;48.63;;;22.70;;
65665;SDS011;52365;47.464;18.976;2022-12-18T01:55:46;77.72;;;33.80;;
65665;SDS011;52365;47.464;18.976;2022-12-18T01:56:27;95.12;;;39.67;;
65665;SDS011;52365;47.464;18.976;2022-12-18T01:57:03;95.43;;;40.38;;
65665;SDS011;52365;47.464;18.976;2022-12-18T01:57:40;94.70;;;40.33;;
65665;SDS011;52365;47.464;18.976;2022-12-18T01:58:17;92.18;;;38.25;;
65665;SDS011;52365;47.464;18.976;2022-12-18T01:58:58;80.87;;;36.30;;
65665;SDS011;52365;47.464;18.976;2022-12-18T01:59:37;75.20;;;33.45;;
65665;SDS011;52365;47.464;18.976;2022-12-18T02:00:18;75.53;;;32.15;;
65665;SDS011;52365;47.464;18.976;2022-12-18T02:00:56;70.62;;;30.58;;
65665;SDS011;52365;47.464;18.976;2022-12-18T02:01:32;58.87;;;25.42;;
65665;SDS011;52365;47.464;18.976;2022-12-18T02:02:08;59.20;;;25.77;;
65665;SDS011;52365;47.464;18.976;2022-12-18T02:02:45;54.28;;;24.50;;
65665;SDS011;52365;47.464;18.976;2022-12-18T02:03:22;55.70;;;25.17;;
65665;SDS011;52365;47.464;18.976;2022-12-18T02:04:20;52.70;;;23.98;;
65665;SDS011;52365;47.464;18.976;2022-12-18T02:04:57;49.90;;;22.42;;
65665;SDS011;52365;47.464;18.976;2022-12-18T02:07:35;51.50;;;22.92;;
65665;SDS011;52365;47.464;18.976;2022-12-18T02:08:10;52.65;;;24.00;;
65665;SDS011;52365;47.464;18.976;2022-12-18T02:09:00;52.20;;;23.08;;
65665;SDS011;52365;47.464;18.976;2022-12-18T02:09:40;55.30;;;24.70;;
65665;SDS011;52365;47.464;18.976;2022-12-18T02:10:35;52.55;;;24.10;;
65665;SDS011;52365;47.464;18.976;2022-12-18T02:12:01;52.58;;;23.50;;
65665;SDS011;52365;47.464;18.976;2022-12-18T02:12:56;47.60;;;22.37;;
65665;SDS011;52365;47.464;18.976;2022-12-18T02:15:59;52.58;;;23.85;;
65665;SDS011;52365;47.464;18.976;2022-12-18T02:16:45;53.80;;;24.02;;
65665;SDS011;52365;47.464;18.976;2022-12-18T02:18:10;55.63;;;25.27;;
65665;SDS011;52365;47.464;18.976;2022-12-18T02:18:38;55.15;;;25.02;;
65665;SDS011;52365;47.464;18.976;2022-12-18T02:19:27;53.70;;;24.83;;
65665;SDS011;52365;47.464;18.976;2022-12-18T02:20:28;53.63;;;24.52;;
65665;SDS011;52365;47.464;18.976;2022-12-18T02:21:09;53.72;;;24.23;;
65665;SDS011;52365;47.464;18.976;2022-12-18T02:22:20;55.97;;;25.20;;
65665;SDS011;52365;47.464;18.976;2022-12-18T02:26:50;56.90;;;25.48;;
65665;SDS011;52365;47.464;18.976;2022-12-18T02:27:30;56.15;;;26.58;;
65665;SDS011;52365;47.464;18.976;2022-12-18T02:28:10;55.45;;;25.65;;
65665;SDS011;52365;47.464;18.976;2022-12-18T02:28:51;53.58;;;24.65;;
65665;SDS011;52365;47.464;18.976;2022-12-18T02:29:37;55.55;;;25.30;;
65665;SDS011;52365;47.464;18.976;2022-12-18T02:30:18;54.45;;;24.75;;
65665;SDS011;52365;47.464;18.976;2022-12-18T02:30:56;55.50;;;25.20;;
65665;SDS011;52365;47.464;18.976;2022-12-18T02:31:36;53.97;;;24.77;;
65665;SDS011;52365;47.464;18.976;2022-12-18T02:32:19;52.90;;;24.10;;
65665;SDS011;52365;47.464;18.976;2022-12-18T02:33:08;50.12;;;23.23;;
65665;SDS011;52365;47.464;18.976;2022-12-18T02:33:47;51.08;;;23.65;;
65665;SDS011;52365;47.464;18.976;2022-12-18T02:34:26;52.88;;;24.05;;
65665;SDS011;52365;47.464;18.976;2022-12-18T02:35:06;50.80;;;24.30;;
65665;SDS011;52365;47.464;18.976;2022-12-18T02:35:46;50.12;;;23.38;;
65665;SDS011;52365;47.464;18.976;2022-12-18T02:36:24;50.88;;;24.10;;
65665;SDS011;52365;47.464;18.976;2022-12-18T02:37:04;51.53;;;23.42;;
65665;SDS011;52365;47.464;18.976;2022-12-18T02:37:43;51.78;;;24.77;;
65665;SDS011;52365;47.464;18.976;2022-12-18T02:38:22;50.53;;;24.48;;
65665;SDS011;52365;47.464;18.976;2022-12-18T02:39:00;50.95;;;24.05;;
65665;SDS011;52365;47.464;18.976;2022-12-18T02:39:38;49.60;;;22.83;;
65665;SDS011;52365;47.464;18.976;2022-12-18T02:40:17;50.53;;;22.48;;
65665;SDS011;52365;47.464;18.976;2022-12-18T02:40:56;48.58;;;22.37;;
65665;SDS011;52365;47.464;18.976;2022-12-18T02:41:33;46.13;;;21.90;;
65665;SDS011;52365;47.464;18.976;2022-12-18T02:42:12;45.42;;;22.00;;
65665;SDS011;52365;47.464;18.976;2022-12-18T02:42:49;51.33;;;23.67;;
65665;SDS011;52365;47.464;18.976;2022-12-18T02:43:25;44.45;;;21.85;;
65665;SDS011;52365;47.464;18.976;2022-12-18T02:44:02;47.08;;;22.15;;
65665;SDS011;52365;47.464;18.976;2022-12-18T02:44:44;44.70;;;21.48;;
65665;SDS011;52365;47.464;18.976;2022-12-18T02:45:22;47.15;;;22.35;;
65665;SDS011;52365;47.464;18.976;2022-12-18T02:45:58;47.60;;;22.58;;
65665;SDS011;52365;47.464;18.976;2022-12-18T02:46:37;49.22;;;22.62;;
65665;SDS011;52365;47.464;18.976;2022-12-18T02:47:17;51.42;;;22.62;;
65665;SDS011;52365;47.464;18.976;2022-12-18T02:47:56;46.45;;;21.73;;
65665;SDS011;52365;47.464;18.976;2022-12-18T02:48:32;47.03;;;22.35;;
65665;SDS011;52365;47.464;18.976;2022-12-18T02:50:27;47.70;;;22.50;;
65665;SDS011;52365;47.464;18.976;2022-12-18T02:51:22;47.45;;;22.42;;
65665;SDS011;52365;47.464;18.976;2022-12-18T02:52:13;45.85;;;21.42;;
65665;SDS011;52365;47.464;18.976;2022-12-18T02:53:17;48.95;;;21.90;;
65665;SDS011;52365;47.464;18.976;2022-12-18T02:54:09;45.55;;;21.40;;
65665;SDS011;52365;47.464;18.976;2022-12-18T02:54:57;44.97;;;20.80;;
65665;SDS011;52365;47.464;18.976;2022-12-18T02:56:43;43.85;;;21.00;;
65665;SDS011;52365;47.464;18.976;2022-12-18T02:57:30;44.17;;;19.92;;
65665;SDS011;52365;47.464;18.976;2022-12-18T02:58:19;44.85;;;20.70;;
65665;SDS011;52365;47.464;18.976;2022-12-18T02:59:02;42.45;;;20.73;;
65665;SDS011;52365;47.464;18.976;2022-12-18T02:59:58;44.88;;;21.33;;
65665;SDS011;52365;47.464;18.976;2022-12-18T03:00:41;43.05;;;20.88;;
65665;SDS011;52365;47.464;18.976;2022-12-18T03:02:28;46.28;;;22.17;;
65665;SDS011;52365;47.464;18.976;2022-12-18T03:03:13;46.55;;;22.10;;
65665;SDS011;52365;47.464;18.976;2022-12-18T03:04:04;49.40;;;22.67;;
65665;SDS011;52365;47.464;18.976;2022-12-18T03:04:48;51.35;;;23.30;;
65665;SDS011;52365;47.464;18.976;2022-12-18T03:05:33;46.83;;;22.08;;
65665;SDS011;52365;47.464;18.976;2022-12-18T03:06:18;47.95;;;21.87;;
65665;SDS011;52365;47.464;18.976;2022-12-18T03:07:15;46.67;;;21.65;;
65665;SDS011;52365;47.464;18.976;2022-12-18T03:08:15;45.25;;;21.37;;
65665;SDS011;52365;47.464;18.976;2022-12-18T03:08:59;45.58;;;21.42;;
65665;SDS011;52365;47.464;18.976;2022-12-18T03:09:42;45.08;;;21.33;;
65665;SDS011;52365;47.464;18.976;2022-12-18T03:10:25;43.97;;;19.80;;
65665;SDS011;52365;47.464;18.976;2022-12-18T03:11:07;39.40;;;19.42;;
65665;SDS011;52365;47.464;18.976;2022-12-18T03:11:46;40.58;;;19.87;;
65665;SDS011;52365;47.464;18.976;2022-12-18T03:12:49;43.97;;;20.12;;
65665;SDS011;52365;47.464;18.976;2022-12-18T03:14:18;41.55;;;19.45;;
65665;SDS011;52365;47.464;18.976;2022-12-18T03:15:44;42.55;;;20.48;;
65665;SDS011;52365;47.464;18.976;2022-12-18T03:16:27;41.70;;;19.50;;
65665;SDS011;52365;47.464;18.976;2022-12-18T03:17:07;44.58;;;20.20;;
65665;SDS011;52365;47.464;18.976;2022-12-18T03:17:51;40.05;;;19.50;;
65665;SDS011;52365;47.464;18.976;2022-12-18T03:19:16;43.67;;;20.10;;
65665;SDS011;52365;47.464;18.976;2022-12-18T03:19:58;41.37;;;18.83;;
65665;SDS011;52365;47.464;18.976;2022-12-18T03:20:39;41.37;;;19.10;;
65665;SDS011;52365;47.464;18.976;2022-12-18T03:21:20;37.33;;;18.08;;
65665;SDS011;52365;47.464;18.976;2022-12-18T03:22:02;41.03;;;19.42;;
65665;SDS011;52365;47.464;18.976;2022-12-18T03:22:41;42.03;;;19.40;;
65665;SDS011;52365;47.464;18.976;2022-12-18T03:23:22;42.62;;;20.12;;
65665;SDS011;52365;47.464;18.976;2022-12-18T03:24:01;40.22;;;18.50;;
65665;SDS011;52365;47.464;18.976;2022-12-18T03:24:44;41.17;;;19.80;;
65665;SDS011;52365;47.464;18.976;2022-12-18T03:25:22;41.50;;;19.02;;
65665;SDS011;52365;47.464;18.976;2022-12-18T03:26:02;44.75;;;19.50;;
65665;SDS011;52365;47.464;18.976;2022-12-18T03:26:44;40.45;;;18.52;;
65665;SDS011;52365;47.464;18.976;2022-12-18T03:27:23;41.60;;;19.67;;
65665;SDS011;52365;47.464;18.976;2022-12-18T03:28:01;40.65;;;19.35;;
65665;SDS011;52365;47.464;18.976;2022-12-18T03:28:40;43.85;;;20.02;;
65665;SDS011;52365;47.464;18.976;2022-12-18T03:29:21;42.00;;;19.25;;
65665;SDS011;52365;47.464;18.976;2022-12-18T03:30:05;42.60;;;18.83;;
65665;SDS011;52365;47.464;18.976;2022-12-18T03:30:45;39.33;;;18.30;;
65665;SDS011;52365;47.464;18.976;2022-12-18T03:31:23;39.53;;;18.87;;
65665;SDS011;52365;47.464;18.976;2022-12-18T03:32:08;41.13;;;19.20;;
65665;SDS011;52365;47.464;18.976;2022-12-18T03:34:02;42.42;;;19.05;;
65665;SDS011;52365;47.464;18.976;2022-12-18T03:34:44;41.15;;;19.42;;
65665;SDS011;52365;47.464;18.976;2022-12-18T03:35:26;40.40;;;18.98;;
65665;SDS011;52365;47.464;18.976;2022-12-18T03:36:06;39.28;;;18.10;;
65665;SDS011;52365;47.464;18.976;2022-12-18T03:36:43;37.67;;;17.45;;
65665;SDS011;52365;47.464;18.976;2022-12-18T03:37:19;38.03;;;17.73;;
65665;SDS011;52365;47.464;18.976;2022-12-18T03:37:55;40.00;;;18.10;;
65665;SDS011;52365;47.464;18.976;2022-12-18T03:38:31;38.25;;;17.92;;
65665;SDS011;52365;47.464;18.976;2022-12-18T03:39:07;36.30;;;17.60;;
65665;SDS011;52365;47.464;18.976;2022-12-18T03:39:43;37.00;;;17.87;;
65665;SDS011;52365;47.464;18.976;2022-12-18T03:40:24;41.72;;;18.23;;
65665;SDS011;52365;47.464;18.976;2022-12-18T03:42:46;37.05;;;16.65;;
65665;SDS011;52365;47.464;18.976;2022-12-18T03:46:01;33.35;;;15.50;;
65665;SDS011;52365;47.464;18.976;2022-12-18T03:46:43;36.53;;;17.67;;
65665;SDS011;52365;47.464;18.976;2022-12-18T03:47:27;36.38;;;16.62;;
65665;SDS011;52365;47.464;18.976;2022-12-18T03:48:58;36.70;;;17.00;;
65665;SDS011;52365;47.464;18.976;2022-12-18T03:51:37;33.92;;;16.35;;
65665;SDS011;52365;47.464;18.976;2022-12-18T03:52:28;34.50;;;16.77;;
65665;SDS011;52365;47.464;18.976;2022-12-18T03:54:09;32.08;;;15.35;;
65665;SDS011;52365;47.464;18.976;2022-12-18T03:54:47;35.20;;;16.37;;
65665;SDS011;52365;47.464;18.976;2022-12-18T03:55:23;31.73;;;15.25;;
65665;SDS011;52365;47.464;18.976;2022-12-18T03:56:03;34.20;;;16.23;;
65665;SDS011;52365;47.464;18.976;2022-12-18T03:56:44;33.67;;;15.88;;
65665;SDS011;52365;47.464;18.976;2022-12-18T03:57:25;35.08;;;15.35;;
65665;SDS011;52365;47.464;18.976;2022-12-18T03:58:03;32.95;;;15.45;;
65665;SDS011;52365;47.464;18.976;2022-12-18T03:58:43;34.55;;;16.05;;
65665;SDS011;52365;47.464;18.976;2022-12-18T03:59:21;34.80;;;16.55;;
65665;SDS011;52365;47.464;18.976;2022-12-18T04:00:07;33.22;;;15.70;;
65665;SDS011;52365;47.464;18.976;2022-12-18T04:00:46;33.53;;;16.02;;
65665;SDS011;52365;47.464;18.976;2022-12-18T04:01:34;35.42;;;16.42;;
65665;SDS011;52365;47.464;18.976;2022-12-18T04:02:13;38.10;;;17.75;;
65665;SDS011;52365;47.464;18.976;2022-12-18T04:02:53;36.83;;;17.15;;
65665;SDS011;52365;47.464;18.976;2022-12-18T04:03:31;40.58;;;18.40;;
65665;SDS011;52365;47.464;18.976;2022-12-18T04:04:09;38.83;;;18.02;;
65665;SDS011;52365;47.464;18.976;2022-12-18T04:04:47;37.58;;;17.42;;
65665;SDS011;52365;47.464;18.976;2022-12-18T04:05:27;36.78;;;17.50;;
65665;SDS011;52365;47.464;18.976;2022-12-18T04:06:05;35.10;;;16.35;;
65665;SDS011;52365;47.464;18.976;2022-12-18T04:06:43;36.40;;;16.55;;
65665;SDS011;52365;47.464;18.976;2022-12-18T04:07:20;35.20;;;16.45;;
65665;SDS011;52365;47.464;18.976;2022-12-18T04:07:58;37.17;;;16.92;;
65665;SDS011;52365;47.464;18.976;2022-12-18T04:08:34;38.50;;;16.80;;
65665;SDS011;52365;47.464;18.976;2022-12-18T04:09:11;33.78;;;16.40;;
65665;SDS011;52365;47.464;18.976;2022-12-18T04:09:48;35.90;;;17.02;;
65665;SDS011;52365;47.464;18.976;2022-12-18T04:10:27;35.70;;;16.70;;
65665;SDS011;52365;47.464;18.976;2022-12-18T04:11:03;37.05;;;16.52;;
65665;SDS011;52365;47.464;18.976;2022-12-18T04:11:40;35.30;;;16.42;;
65665;SDS011;52365;47.464;18.976;2022-12-18T04:12:19;34.05;;;16.55;;
65665;SDS011;52365;47.464;18.976;2022-12-18T04:12:55;37.05;;;17.12;;
65665;SDS011;52365;47.464;18.976;2022-12-18T04:13:33;40.63;;;18.30;;
65665;SDS011;52365;47.464;18.976;2022-12-18T04:14:11;39.75;;;18.30;;